Terminal Aerodrome Forecast
Issued by NWS

Current Version | Previous Version | Text Only | Print | Product List | Glossary Off
Versions: 1 2 3 4 5 6 7 8 9 10 11 12 13 14 15 16 17 18 19 20 21 22 23

000
FTUS41 KPBZ 180700 AAA
TAFHLG
TAF AMD
KHLG 180700Z 1807/1906 00000KT 2SM BR SCT002
      TEMPO 1808/1812 1/4SM FG VV002
     FM181330 00000KT P6SM SCT025
     FM181700 00000KT P6SM BKN045
     FM190100 06003KT P6SM SCT150=

USA.gov is the U.S. government's official web portal to all federal, state and local government web resources and services.